createdAt,value
2016-06-12T00:00:18.964Z,0
2016-06-12T00:01:18.811Z,0
2016-06-12T00:02:18.970Z,0
2016-06-12T00:03:18.973Z,0
2016-06-12T00:04:18.976Z,0
2016-06-12T00:05:19.838Z,0
2016-06-12T00:06:18.982Z,0
2016-06-12T00:07:20.658Z,0
2016-06-12T00:08:18.989Z,0
2016-06-12T00:09:19.017Z,0
2016-06-12T00:10:19.059Z,0
2016-06-12T00:11:19.100Z,0
2016-06-12T00:12:19.141Z,0
2016-06-12T00:13:19.182Z,0
2016-06-12T00:14:19.207Z,0
2016-06-12T00:15:19.239Z,0
2016-06-12T00:16:19.241Z,0
2016-06-12T00:17:19.257Z,0
2016-06-12T00:18:20.540Z,0
2016-06-12T00:19:19.285Z,0
2016-06-12T00:20:20.262Z,0
2016-06-12T00:21:19.457Z,0
2016-06-12T00:22:19.309Z,0
2016-06-12T00:23:19.317Z,0
2016-06-12T00:24:19.323Z,0
2016-06-12T00:25:19.328Z,0
2016-06-12T00:26:19.333Z,0
2016-06-12T00:27:19.338Z,0
2016-06-12T00:28:19.343Z,0
2016-06-12T00:29:20.238Z,0
2016-06-12T00:30:19.367Z,0
2016-06-12T00:31:19.948Z,0
2016-06-12T00:32:19.358Z,0
2016-06-12T00:33:19.361Z,0
2016-06-12T00:34:19.412Z,0
2016-06-12T00:35:20.587Z,0
2016-06-12T00:36:19.387Z,0
2016-06-12T00:37:19.375Z,0
2016-06-12T00:38:19.378Z,0
2016-06-12T00:39:19.381Z,0
2016-06-12T00:40:20.401Z,0
2016-06-12T00:41:19.246Z,0
2016-06-12T00:42:20.172Z,0
2016-06-12T00:43:19.377Z,0
2016-06-12T00:44:19.397Z,0
2016-06-12T00:45:19.400Z,0
2016-06-12T00:46:19.403Z,0
2016-06-12T00:47:19.406Z,0
2016-06-12T00:48:19.393Z,0
2016-06-12T00:49:19.412Z,0
2016-06-12T00:50:19.416Z,0
2016-06-12T00:51:20.215Z,0
2016-06-12T00:52:19.422Z,0
2016-06-12T00:53:19.971Z,0
2016-06-12T00:54:19.428Z,0
2016-06-12T00:55:19.431Z,0
2016-06-12T00:56:19.417Z,0
2016-06-12T00:57:19.421Z,0
2016-06-12T00:58:19.581Z,0
2016-06-12T00:59:19.459Z,0
2016-06-12T01:00:19.462Z,0
2016-06-12T01:01:19.433Z,0
2016-06-12T01:02:20.171Z,0
2016-06-12T01:03:19.439Z,0
2016-06-12T01:04:20.631Z,0
2016-06-12T01:05:20.211Z,0
2016-06-12T01:06:19.464Z,0
2016-06-12T01:07:19.451Z,0
2016-06-12T01:08:19.315Z,0
2016-06-12T01:09:19.457Z,0
2016-06-12T01:10:19.477Z,0
2016-06-12T01:11:19.480Z,0
2016-06-12T01:12:19.482Z,0
2016-06-12T01:13:20.111Z,0
2016-06-12T01:14:19.473Z,0
2016-06-12T01:15:20.539Z,0
2016-06-12T01:16:19.480Z,0
2016-06-12T01:17:19.482Z,0
2016-06-12T01:18:19.486Z,0
2016-06-12T01:19:19.504Z,0
2016-06-12T01:20:20.429Z,0
2016-06-12T01:21:19.510Z,0
2016-06-12T01:22:19.497Z,0
2016-06-12T01:23:19.408Z,0
2016-06-12T01:24:20.614Z,0
2016-06-12T01:25:19.523Z,0
2016-06-12T01:26:20.385Z,0
2016-06-12T01:27:19.357Z,0
2016-06-12T01:28:19.516Z,0
2016-06-12T01:29:19.363Z,0
2016-06-12T01:30:19.366Z,0
2016-06-12T01:31:19.542Z,0
2016-06-12T01:32:19.544Z,0
2016-06-12T01:33:19.375Z,0
2016-06-12T01:34:19.551Z,0
2016-06-12T01:35:19.976Z,0
2016-06-12T01:36:19.432Z,0
2016-06-12T01:37:20.435Z,0
2016-06-12T01:38:19.547Z,0
2016-06-12T01:39:19.566Z,0
2016-06-12T01:40:19.397Z,0
2016-06-12T01:41:19.417Z,0
2016-06-12T01:42:19.575Z,0
2016-06-12T01:43:19.562Z,0
2016-06-12T01:44:19.581Z,0
2016-06-12T01:45:19.554Z,0
2016-06-12T01:46:20.807Z,0
2016-06-12T01:47:19.574Z,0
2016-06-12T01:48:20.360Z,0
2016-06-12T01:49:19.581Z,0
2016-06-12T01:50:19.366Z,0
2016-06-12T01:51:19.931Z,0
2016-06-12T01:52:19.590Z,0
2016-06-12T01:53:19.609Z,0
2016-06-12T01:54:19.596Z,0
2016-06-12T01:55:19.600Z,0
2016-06-12T01:56:19.602Z,0
2016-06-12T01:57:20.558Z,0
2016-06-12T01:58:19.609Z,0
2016-06-12T01:59:21.643Z,0
2016-06-12T02:00:19.631Z,0
2016-06-12T02:01:19.618Z,0
2016-06-12T02:02:19.653Z,0
2016-06-12T02:03:19.624Z,0
2016-06-12T02:04:19.627Z,0
2016-06-12T02:05:19.599Z,0
2016-06-12T02:06:19.633Z,0
2016-06-12T02:07:19.636Z,0
2016-06-12T02:08:20.639Z,0
2016-06-12T02:09:19.659Z,0
2016-06-12T02:10:20.193Z,0
2016-06-12T02:11:19.665Z,0
2016-06-12T02:12:19.668Z,0
2016-06-12T02:13:19.671Z,0
2016-06-12T02:14:19.674Z,0
2016-06-12T02:15:19.677Z,0
2016-06-12T02:16:19.680Z,0
2016-06-12T02:17:19.683Z,0
2016-06-12T02:18:19.702Z,0
2016-06-12T02:19:20.517Z,0
2016-06-12T02:20:20.051Z,0
2016-06-12T02:21:22.320Z,0
2016-06-12T02:22:19.777Z,0
2016-06-12T02:23:19.732Z,0
2016-06-12T02:24:19.829Z,0
2016-06-12T02:25:19.707Z,0
2016-06-12T02:26:19.602Z,0
2016-06-12T02:27:19.714Z,0
2016-06-12T02:28:19.732Z,0
2016-06-12T02:29:19.720Z,0
2016-06-12T02:30:20.504Z,0
2016-06-12T02:31:19.742Z,0
2016-06-12T02:32:21.588Z,0
2016-06-12T02:33:19.733Z,0
2016-06-12T02:34:19.735Z,0
2016-06-12T02:35:20.363Z,0
2016-06-12T02:36:20.616Z,0
2016-06-12T02:37:19.760Z,0
2016-06-12T02:38:19.748Z,0
2016-06-12T02:39:19.767Z,0
2016-06-12T02:40:19.770Z,0
2016-06-12T02:41:20.553Z,0
2016-06-12T02:42:19.619Z,0
2016-06-12T02:43:21.450Z,0
2016-06-12T02:44:19.782Z,0
2016-06-12T02:45:19.769Z,0
2016-06-12T02:46:19.772Z,0
2016-06-12T02:47:19.775Z,0
2016-06-12T02:48:19.778Z,0
2016-06-12T02:49:19.797Z,0
2016-06-12T02:50:20.050Z,0
2016-06-12T02:51:19.787Z,0
2016-06-12T02:52:20.619Z,0
2016-06-12T02:53:19.809Z,0
2016-06-12T02:54:21.593Z,0
2016-06-12T02:55:19.816Z,0
2016-06-12T02:56:19.819Z,0
2016-06-12T02:57:19.821Z,0
2016-06-12T02:58:19.825Z,0
2016-06-12T02:59:19.859Z,0
2016-06-12T03:00:19.846Z,0
2016-06-12T03:01:19.834Z,0
2016-06-12T03:02:19.852Z,0
2016-06-12T03:03:20.449Z,0
2016-06-12T03:04:19.843Z,0
2016-06-12T03:05:21.409Z,0
2016-06-12T03:06:20.130Z,0
2016-06-12T03:07:19.852Z,0
2016-06-12T03:08:19.902Z,0
2016-06-12T03:09:19.874Z,0
2016-06-12T03:10:22.329Z,0
2016-06-12T03:11:19.724Z,0
2016-06-12T03:12:19.883Z,0
2016-06-12T03:13:19.886Z,0
2016-06-12T03:14:20.499Z,0
2016-06-12T03:15:19.892Z,0
2016-06-12T03:16:21.381Z,0
2016-06-12T03:17:19.742Z,0
2016-06-12T03:18:21.011Z,0
2016-06-12T03:19:19.920Z,0
2016-06-12T03:20:19.813Z,0
2016-06-12T03:21:20.802Z,0
2016-06-12T03:22:19.757Z,0
2016-06-12T03:23:19.916Z,0
2016-06-12T03:24:19.951Z,0
2016-06-12T03:25:21.033Z,0
2016-06-12T03:26:19.926Z,0
2016-06-12T03:27:21.179Z,0
2016-06-12T03:28:19.963Z,0
2016-06-12T03:29:20.998Z,0
2016-06-12T03:30:19.955Z,0
2016-06-12T03:31:19.957Z,0
2016-06-12T03:32:19.960Z,0
2016-06-12T03:33:19.948Z,0
2016-06-12T03:34:19.982Z,0
2016-06-12T03:35:19.970Z,0
2016-06-12T03:36:23.159Z,0
2016-06-12T03:37:19.913Z,0
2016-06-12T03:38:21.166Z,0
2016-06-12T03:39:19.982Z,0
2016-06-12T03:40:20.829Z,0
2016-06-12T03:41:19.863Z,0
2016-06-12T03:42:20.007Z,5
2016-06-12T03:43:20.025Z,5
2016-06-12T03:44:19.856Z,5
2016-06-12T03:45:20.000Z,5
2016-06-12T03:46:20.003Z,5
2016-06-12T03:47:20.960Z,5
2016-06-12T03:48:20.025Z,5
2016-06-12T03:49:21.059Z,5
2016-06-12T03:50:20.656Z,5
2016-06-12T03:51:20.800Z,5
2016-06-12T03:52:20.037Z,5
2016-06-12T03:53:20.040Z,5
2016-06-12T03:54:20.043Z,5
2016-06-12T03:55:20.047Z,5
2016-06-12T03:56:20.049Z,5
2016-06-12T03:57:20.052Z,5
2016-06-12T03:58:21.212Z,0
2016-06-12T03:59:20.074Z,0
2016-06-12T04:00:21.281Z,0
2016-06-12T04:01:20.065Z,0
2016-06-12T04:02:20.974Z,0
2016-06-12T04:03:20.070Z,0
2016-06-12T04:04:20.074Z,0
2016-06-12T04:05:19.921Z,0
2016-06-12T04:06:20.205Z,0
2016-06-12T04:07:20.083Z,0
2016-06-12T04:08:20.133Z,0
2016-06-12T04:09:20.949Z,0
2016-06-12T04:10:20.092Z,0
2016-06-12T04:11:21.283Z,0
2016-06-12T04:12:20.114Z,0
2016-06-12T04:13:21.055Z,0
2016-06-12T04:14:20.121Z,0
2016-06-12T04:15:19.967Z,0
2016-06-12T04:16:20.127Z,0
2016-06-12T04:17:19.974Z,0
2016-06-12T04:18:20.117Z,0
2016-06-12T04:19:19.979Z,0
2016-06-12T04:20:21.233Z,0
2016-06-12T04:21:20.548Z,0
2016-06-12T04:22:21.583Z,0
2016-06-12T04:23:20.148Z,0
2016-06-12T04:24:21.245Z,0
2016-06-12T04:25:20.171Z,5
2016-06-12T04:26:20.157Z,5
2016-06-12T04:27:20.004Z,5
2016-06-12T04:28:20.163Z,5
2016-06-12T04:29:20.198Z,5
2016-06-12T04:30:20.186Z,5
2016-06-12T04:31:21.314Z,5
2016-06-12T04:32:20.191Z,5
2016-06-12T04:33:21.523Z,5
2016-06-12T04:34:20.198Z,5
2016-06-12T04:35:21.201Z,5
2016-06-12T04:36:20.657Z,5
2016-06-12T04:37:20.300Z,5
2016-06-12T04:38:20.367Z,5
2016-06-12T04:39:20.213Z,5
2016-06-12T04:40:20.216Z,5
2016-06-12T04:41:20.220Z,5
2016-06-12T04:42:21.316Z,5
2016-06-12T04:43:20.085Z,5
2016-06-12T04:44:21.494Z,5
2016-06-12T04:45:20.247Z,5
2016-06-12T04:46:21.266Z,5
2016-06-12T04:47:20.253Z,5
2016-06-12T04:48:20.116Z,5
2016-06-12T04:49:20.259Z,5
2016-06-12T04:50:20.278Z,5
2016-06-12T04:51:20.547Z,5
2016-06-12T04:52:20.285Z,5
2016-06-12T04:53:21.381Z,5
2016-06-12T04:54:20.321Z,5
2016-06-12T04:55:21.466Z,5
2016-06-12T04:56:20.313Z,5
2016-06-12T04:57:21.158Z,5
2016-06-12T04:58:20.303Z,5
2016-06-12T04:59:20.322Z,5
2016-06-12T05:00:20.168Z,5
2016-06-12T05:01:20.343Z,5
2016-06-12T05:02:20.331Z,10
2016-06-12T05:03:20.334Z,10
2016-06-12T05:04:21.462Z,10
2016-06-12T05:05:20.340Z,10
2016-06-12T05:06:22.859Z,10
2016-06-12T05:07:20.253Z,10
2016-06-12T05:08:21.302Z,10
2016-06-12T05:09:20.367Z,10
2016-06-12T05:10:20.371Z,15
2016-06-12T05:11:20.374Z,15
2016-06-12T05:12:20.392Z,15
2016-06-12T05:13:20.380Z,15
2016-06-12T05:14:20.399Z,15
2016-06-12T05:15:20.917Z,15
2016-06-12T05:16:20.405Z,15
2016-06-12T05:17:21.705Z,15
2016-06-12T05:18:20.270Z,15
2016-06-12T05:19:21.415Z,15
2016-06-12T05:20:20.417Z,15
2016-06-12T05:21:20.779Z,15
2016-06-12T05:22:20.268Z,15
2016-06-12T05:23:20.427Z,15
2016-06-12T05:24:20.429Z,20
2016-06-12T05:25:20.433Z,20
2016-06-12T05:26:21.450Z,20
2016-06-12T05:27:20.454Z,20
2016-06-12T05:28:21.536Z,20
2016-06-12T05:29:20.460Z,20
2016-06-12T05:30:21.260Z,20
2016-06-12T05:31:20.467Z,20
2016-06-12T05:32:20.469Z,20
2016-06-12T05:33:20.473Z,20
2016-06-12T05:34:20.491Z,20
2016-06-12T05:35:20.479Z,20
2016-06-12T05:36:21.794Z,20
2016-06-12T05:37:21.282Z,20
2016-06-12T05:38:20.504Z,20
2016-06-12T05:39:21.445Z,20
2016-06-12T05:40:22.557Z,25
2016-06-12T05:41:21.107Z,25
2016-06-12T05:42:20.532Z,25
2016-06-12T05:43:20.535Z,25
2016-06-12T05:44:20.538Z,25
2016-06-12T05:45:20.525Z,25
2016-06-12T05:46:20.544Z,25
2016-06-12T05:47:20.547Z,25
2016-06-12T05:48:21.206Z,25
2016-06-12T05:49:20.553Z,25
2016-06-12T05:50:21.368Z,25
2016-06-12T05:51:20.872Z,25
2016-06-12T05:52:21.172Z,25
2016-06-12T05:53:20.441Z,25
2016-06-12T05:54:20.600Z,25
2016-06-12T05:55:20.447Z,25
2016-06-12T05:56:20.606Z,25
2016-06-12T05:57:20.609Z,25
2016-06-12T05:58:20.629Z,25
2016-06-12T05:59:21.271Z,30
2016-06-12T06:00:20.634Z,30
2016-06-12T06:01:21.419Z,30
2016-06-12T06:02:20.640Z,30
2016-06-12T06:03:21.097Z,30
2016-06-12T06:04:20.646Z,30
2016-06-12T06:05:20.665Z,30
2016-06-12T06:06:21.152Z,25
2016-06-12T06:07:20.687Z,25
2016-06-12T06:08:20.674Z,25
2016-06-12T06:09:20.693Z,25
2016-06-12T06:10:21.133Z,25
2016-06-12T06:11:20.699Z,25
2016-06-12T06:12:21.233Z,25
2016-06-12T06:13:20.549Z,25
2016-06-12T06:14:21.005Z,25
2016-06-12T06:15:20.712Z,25
2016-06-12T06:16:20.729Z,25
2016-06-12T06:17:20.732Z,25
2016-06-12T06:18:20.736Z,25
2016-06-12T06:19:20.583Z,25
2016-06-12T06:20:20.758Z,25
2016-06-12T06:21:21.151Z,25
2016-06-12T06:22:20.764Z,25
2016-06-12T06:23:21.423Z,25
2016-06-12T06:24:20.786Z,25
2016-06-12T06:25:21.070Z,25
2016-06-12T06:26:20.777Z,25
2016-06-12T06:27:20.795Z,25
2016-06-12T06:28:20.813Z,25
2016-06-12T06:29:20.802Z,25
2016-06-12T06:30:20.805Z,25
2016-06-12T06:31:20.823Z,25
2016-06-12T06:32:21.169Z,25
2016-06-12T06:33:20.829Z,30
2016-06-12T06:34:21.957Z,30
2016-06-12T06:35:20.709Z,30
2016-06-12T06:36:21.791Z,30
2016-06-12T06:37:21.388Z,30
2016-06-12T06:38:20.860Z,30
2016-06-12T06:39:20.863Z,30
2016-06-12T06:40:20.898Z,30
2016-06-12T06:41:20.932Z,30
2016-06-12T06:42:20.997Z,30
2016-06-12T06:43:21.360Z,30
2016-06-12T06:44:20.894Z,30
2016-06-12T06:45:21.413Z,30
2016-06-12T06:46:20.916Z,30
2016-06-12T06:47:21.122Z,30
2016-06-12T06:48:20.922Z,30
2016-06-12T06:49:20.940Z,30
2016-06-12T06:50:20.944Z,30
2016-06-12T06:51:20.884Z,30
2016-06-12T06:52:21.465Z,30
2016-06-12T06:53:20.968Z,30
2016-06-12T06:54:21.143Z,30
2016-06-12T06:55:20.959Z,30
2016-06-12T06:56:22.087Z,30
2016-06-12T06:57:20.841Z,35
2016-06-12T06:58:21.031Z,35
2016-06-12T06:59:20.986Z,35
2016-06-12T07:00:20.990Z,35
2016-06-12T07:01:21.009Z,35
2016-06-12T07:02:20.996Z,35
2016-06-12T07:03:21.015Z,35
2016-06-12T07:04:21.018Z,30
2016-06-12T07:05:21.021Z,30
2016-06-12T07:06:20.915Z,30
2016-06-12T07:07:24.528Z,30
2016-06-12T07:08:21.031Z,30
2016-06-12T07:09:21.097Z,30
2016-06-12T07:10:20.895Z,30
2016-06-12T07:11:21.056Z,30
2016-06-12T07:12:21.059Z,30
2016-06-12T07:13:20.905Z,30
2016-06-12T07:14:21.064Z,30
2016-06-12T07:15:21.083Z,30
2016-06-12T07:16:22.039Z,30
2016-06-12T07:17:21.089Z,30
2016-06-12T07:18:21.889Z,30
2016-06-12T07:19:21.095Z,30
2016-06-12T07:20:21.098Z,30
2016-06-12T07:21:21.648Z,30
2016-06-12T07:22:21.995Z,30
2016-06-12T07:23:21.124Z,30
2016-06-12T07:24:21.127Z,30
2016-06-12T07:25:20.988Z,30
2016-06-12T07:26:20.992Z,30
2016-06-12T07:27:21.947Z,35
2016-06-12T07:28:21.154Z,35
2016-06-12T07:29:22.204Z,35
2016-06-12T07:30:21.161Z,35
2016-06-12T07:31:21.914Z,35
2016-06-12T07:32:21.167Z,35
2016-06-12T07:33:21.185Z,35
2016-06-12T07:34:21.173Z,40
2016-06-12T07:35:21.191Z,40
2016-06-12T07:36:21.757Z,40
2016-06-12T07:37:21.260Z,45
2016-06-12T07:38:21.998Z,50
2016-06-12T07:39:21.204Z,50
2016-06-12T07:40:22.238Z,55
2016-06-12T07:41:21.116Z,60
2016-06-12T07:42:21.916Z,65
2016-06-12T07:43:21.232Z,65
2016-06-12T07:44:21.235Z,65
2016-06-12T07:45:21.238Z,70
2016-06-12T07:46:21.241Z,70
2016-06-12T07:47:21.259Z,70
2016-06-12T07:48:21.247Z,70
2016-06-12T07:49:22.172Z,70
2016-06-12T07:50:21.284Z,70
2016-06-12T07:51:22.990Z,70
2016-06-12T07:52:22.103Z,65
2016-06-12T07:53:21.982Z,65
2016-06-12T07:54:21.281Z,65
2016-06-12T07:55:21.284Z,65
2016-06-12T07:56:21.303Z,70
2016-06-12T07:57:21.306Z,70
2016-06-12T07:58:21.309Z,70
2016-06-12T07:59:21.312Z,70
2016-06-12T08:00:22.174Z,70
2016-06-12T08:01:21.334Z,70
2016-06-12T08:02:22.260Z,70
2016-06-12T08:03:21.340Z,70
2016-06-12T08:04:22.000Z,70
2016-06-12T08:05:21.346Z,65
2016-06-12T08:06:21.349Z,65
2016-06-12T08:07:21.728Z,65
2016-06-12T08:08:21.370Z,65
2016-06-12T08:09:21.359Z,65
2016-06-12T08:10:21.471Z,65
2016-06-12T08:11:22.083Z,65
2016-06-12T08:12:21.399Z,65
2016-06-12T08:13:22.214Z,70
2016-06-12T08:14:21.389Z,70
2016-06-12T08:15:22.095Z,70
2016-06-12T08:16:21.411Z,70
2016-06-12T08:17:21.430Z,70
2016-06-12T08:18:21.417Z,70
2016-06-12T08:19:21.421Z,70
2016-06-12T08:20:21.439Z,65
2016-06-12T08:21:21.427Z,65
2016-06-12T08:22:23.821Z,65
2016-06-12T08:23:21.449Z,65
2016-06-12T08:24:22.514Z,65
2016-06-12T08:25:21.455Z,60
2016-06-12T08:26:22.162Z,55
2016-06-12T08:27:21.492Z,55
2016-06-12T08:28:21.479Z,55
2016-06-12T08:29:21.483Z,55
2016-06-12T08:30:21.485Z,55
2016-06-12T08:31:21.520Z,55
2016-06-12T08:32:21.491Z,55
2016-06-12T08:33:22.104Z,50
2016-06-12T08:34:21.389Z,50
2016-06-12T08:35:22.188Z,50
2016-06-12T08:36:21.520Z,50
2016-06-12T08:37:21.898Z,50
2016-06-12T08:38:21.526Z,50
2016-06-12T08:39:21.529Z,50
2016-06-12T08:40:21.547Z,50
2016-06-12T08:41:21.550Z,50
2016-06-12T08:42:21.648Z,50
2016-06-12T08:43:21.464Z,50
2016-06-12T08:44:22.059Z,50
2016-06-12T08:45:21.563Z,50
2016-06-12T08:46:22.206Z,50
2016-06-12T08:47:21.584Z,50
2016-06-12T08:48:21.947Z,50
2016-06-12T08:49:21.607Z,55
2016-06-12T08:50:21.610Z,55
2016-06-12T08:51:21.613Z,55
2016-06-12T08:52:22.522Z,55
2016-06-12T08:53:21.619Z,55
2016-06-12T08:54:21.623Z,55
2016-06-12T08:55:22.141Z,60
2016-06-12T08:56:21.628Z,60
2016-06-12T08:57:22.194Z,60
2016-06-12T08:58:21.635Z,60
2016-06-12T08:59:21.903Z,60
2016-06-12T09:00:21.655Z,60
2016-06-12T09:01:21.659Z,60
2016-06-12T09:02:21.678Z,60
2016-06-12T09:03:21.665Z,60
2016-06-12T09:04:21.684Z,60
2016-06-12T09:05:21.687Z,60
2016-06-12T09:06:21.909Z,60
2016-06-12T09:07:23.255Z,60
2016-06-12T09:08:22.931Z,65
2016-06-12T09:09:21.558Z,65
2016-06-12T09:10:21.765Z,65
2016-06-12T09:11:21.722Z,65
2016-06-12T09:12:21.724Z,65
2016-06-12T09:13:21.727Z,65
2016-06-12T09:14:21.732Z,65
2016-06-12T09:15:21.821Z,65
2016-06-12T09:16:21.834Z,65
2016-06-12T09:17:22.066Z,65
2016-06-12T09:18:21.938Z,70
2016-06-12T09:19:23.137Z,70
2016-06-12T09:20:21.999Z,70
2016-06-12T09:21:22.000Z,75
2016-06-12T09:22:22.034Z,75
2016-06-12T09:23:22.052Z,75
2016-06-12T09:24:21.756Z,75
2016-06-12T09:25:22.061Z,75
2016-06-12T09:26:22.085Z,75
2016-06-12T09:27:21.937Z,75
2016-06-12T09:28:22.352Z,75
2016-06-12T09:29:22.125Z,75
2016-06-12T09:30:23.349Z,75
2016-06-12T09:31:22.134Z,75
2016-06-12T09:32:22.187Z,75
2016-06-12T09:33:22.144Z,80
2016-06-12T09:34:21.993Z,80
2016-06-12T09:35:22.153Z,80
2016-06-12T09:36:22.017Z,80
2016-06-12T09:37:22.849Z,80
2016-06-12T09:38:22.211Z,80
2016-06-12T09:39:22.201Z,80
2016-06-12T09:40:22.188Z,75
2016-06-12T09:41:23.207Z,75
2016-06-12T09:42:21.961Z,75
2016-06-12T09:43:22.151Z,75
2016-06-12T09:44:22.218Z,70
2016-06-12T09:45:22.221Z,70
2016-06-12T09:46:22.224Z,70
2016-06-12T09:47:22.086Z,70
2016-06-12T09:48:22.245Z,70
2016-06-12T09:49:22.248Z,70
2016-06-12T09:50:22.501Z,70
2016-06-12T09:51:22.255Z,70
2016-06-12T09:52:23.789Z,70
2016-06-12T09:53:22.323Z,70
2016-06-12T09:54:22.374Z,70
2016-06-12T09:55:22.283Z,70
2016-06-12T09:56:22.129Z,70
2016-06-12T09:57:22.304Z,70
2016-06-12T09:58:22.136Z,70
2016-06-12T09:59:22.311Z,70
2016-06-12T10:00:22.329Z,75
2016-06-12T10:01:22.363Z,75
2016-06-12T10:02:22.320Z,80
2016-06-12T10:03:23.338Z,80
2016-06-12T10:04:22.326Z,85
2016-06-12T10:05:22.344Z,90
2016-06-12T10:06:22.348Z,95
2016-06-12T10:07:23.022Z,100
2016-06-12T10:08:22.353Z,105
2016-06-12T10:09:22.357Z,105
2016-06-12T10:10:22.391Z,110
2016-06-12T10:11:22.378Z,115
2016-06-12T10:12:22.382Z,115
2016-06-12T10:13:22.385Z,120
2016-06-12T10:14:23.325Z,125
2016-06-12T10:15:22.391Z,125
2016-06-12T10:16:22.394Z,125
2016-06-12T10:17:22.241Z,125
2016-06-12T10:18:22.415Z,120
2016-06-12T10:19:22.419Z,125
2016-06-12T10:20:22.421Z,120
2016-06-12T10:21:22.487Z,120
2016-06-12T10:22:22.632Z,120
2016-06-12T10:23:23.181Z,120
2016-06-12T10:24:22.450Z,120
2016-06-12T10:25:23.391Z,120
2016-06-12T10:26:22.472Z,120
2016-06-12T10:27:22.459Z,115
2016-06-12T10:28:22.478Z,120
2016-06-12T10:29:22.481Z,110
2016-06-12T10:30:41.406Z,105
2016-06-12T10:31:22.488Z,100
2016-06-12T10:32:22.506Z,95
2016-06-12T10:33:22.509Z,85
2016-06-12T10:34:22.652Z,80
2016-06-12T10:35:22.515Z,75
2016-06-12T10:36:23.690Z,70
2016-06-12T10:37:23.037Z,70
2016-06-12T10:38:22.884Z,65
2016-06-12T10:39:22.527Z,60
2016-06-12T10:40:22.546Z,60
2016-06-12T10:41:22.549Z,55
2016-06-12T10:42:22.614Z,55
2016-06-12T10:43:22.602Z,55
2016-06-12T10:44:22.558Z,55
2016-06-12T10:45:22.670Z,50
2016-06-12T10:46:22.626Z,45
2016-06-12T10:47:23.583Z,45
2016-06-12T10:48:22.430Z,40
2016-06-12T10:49:22.590Z,35
2016-06-12T10:50:22.592Z,30
2016-06-12T10:51:22.596Z,30
2016-06-12T10:52:23.208Z,25
2016-06-12T10:53:22.335Z,25
2016-06-12T10:54:22.636Z,25
2016-06-12T10:55:22.623Z,25
2016-06-12T10:56:23.032Z,20
2016-06-12T10:57:22.629Z,20
2016-06-12T10:58:23.227Z,20
2016-06-12T10:59:22.635Z,20
2016-06-12T11:00:22.904Z,20
2016-06-12T11:01:22.657Z,20
2016-06-12T11:02:22.489Z,25
2016-06-12T11:03:22.664Z,25
2016-06-12T11:04:22.666Z,25
2016-06-12T11:05:22.670Z,25
2016-06-12T11:06:22.517Z,25
2016-06-12T11:07:25.472Z,30
2016-06-12T11:08:22.554Z,30
2016-06-12T11:09:23.807Z,30
2016-06-12T11:10:22.716Z,30
2016-06-12T11:11:22.844Z,25
2016-06-12T11:12:22.550Z,30
2016-06-12T11:13:22.709Z,30
2016-06-12T11:14:22.557Z,30
2016-06-12T11:15:22.732Z,30
2016-06-12T11:16:22.719Z,30
2016-06-12T11:17:22.722Z,30
2016-06-12T11:18:23.115Z,30
2016-06-12T11:19:22.728Z,30
2016-06-12T11:20:23.231Z,30
2016-06-12T11:21:22.734Z,30
2016-06-12T11:22:23.550Z,30
2016-06-12T11:23:23.975Z,30
2016-06-12T11:24:22.743Z,30
2016-06-12T11:25:22.606Z,30
2016-06-12T11:26:22.609Z,30
2016-06-12T11:27:22.768Z,25
2016-06-12T11:28:22.771Z,25
2016-06-12T11:29:23.166Z,25
2016-06-12T11:30:22.761Z,25
2016-06-12T11:31:23.374Z,20
2016-06-12T11:32:22.800Z,20
2016-06-12T11:33:23.162Z,20
2016-06-12T11:34:22.790Z,20
2016-06-12T11:35:22.793Z,20
2016-06-12T11:36:22.796Z,20
2016-06-12T11:37:22.738Z,20
2016-06-12T11:38:23.475Z,20
2016-06-12T11:39:22.822Z,20
2016-06-12T11:40:36.934Z,20
2016-06-12T11:41:22.827Z,15
2016-06-12T11:42:23.470Z,15
2016-06-12T11:43:22.880Z,15
2016-06-12T11:44:23.179Z,15
2016-06-12T11:45:22.840Z,15
2016-06-12T11:46:22.858Z,15
2016-06-12T11:47:22.846Z,20
2016-06-12T11:48:22.864Z,20
2016-06-12T11:49:22.914Z,20
2016-06-12T11:50:22.886Z,25
2016-06-12T11:51:23.420Z,25
2016-06-12T11:52:22.876Z,25
2016-06-12T11:53:24.224Z,30
2016-06-12T11:54:22.882Z,30
2016-06-12T11:55:23.214Z,35
2016-06-12T11:56:22.905Z,35
2016-06-12T11:57:22.891Z,35
2016-06-12T11:58:22.910Z,35
2016-06-12T11:59:22.898Z,35
2016-06-12T12:00:22.917Z,35
2016-06-12T12:01:22.920Z,35
2016-06-12T12:02:23.564Z,30
2016-06-12T12:03:22.926Z,30
2016-06-12T12:04:23.820Z,30
2016-06-12T12:05:22.932Z,30
2016-06-12T12:06:23.560Z,35
2016-06-12T12:07:22.938Z,35
2016-06-12T12:08:23.957Z,35
2016-06-12T12:09:22.944Z,30
2016-06-12T12:10:23.151Z,30
2016-06-12T12:11:22.981Z,30
2016-06-12T12:12:22.969Z,25
2016-06-12T12:13:23.676Z,25
2016-06-12T12:14:22.819Z,20
2016-06-12T12:15:23.838Z,20
2016-06-12T12:16:22.983Z,15
2016-06-12T12:17:23.547Z,15
2016-06-12T12:18:23.003Z,15
2016-06-12T12:19:22.882Z,15
2016-06-12T12:20:23.010Z,15
2016-06-12T12:21:23.013Z,15
2016-06-12T12:22:23.016Z,15
2016-06-12T12:23:23.847Z,15
2016-06-12T12:24:23.677Z,15
2016-06-12T12:25:23.041Z,15
2016-06-12T12:26:23.778Z,15
2016-06-12T12:27:23.061Z,15
2016-06-12T12:28:23.503Z,20
2016-06-12T12:29:23.068Z,20
2016-06-12T12:30:22.915Z,20
2016-06-12T12:31:23.060Z,20
2016-06-12T12:32:23.093Z,20
2016-06-12T12:33:23.081Z,20
2016-06-12T12:34:23.084Z,25
2016-06-12T12:35:23.665Z,25
2016-06-12T12:36:22.949Z,25
2016-06-12T12:37:23.827Z,25
2016-06-12T12:38:23.111Z,25
2016-06-12T12:39:23.521Z,25
2016-06-12T12:40:23.102Z,25
2016-06-12T12:41:23.104Z,25
2016-06-12T12:42:23.124Z,25
2016-06-12T12:43:23.127Z,30
2016-06-12T12:44:23.272Z,30
2016-06-12T12:45:23.133Z,30
2016-06-12T12:46:23.636Z,30
2016-06-12T12:47:23.139Z,35
2016-06-12T12:48:23.751Z,35
2016-06-12T12:49:23.162Z,35
2016-06-12T12:50:23.508Z,35
2016-06-12T12:51:23.183Z,35
2016-06-12T12:52:23.186Z,35
2016-06-12T12:53:23.533Z,35
2016-06-12T12:54:23.192Z,35
2016-06-12T12:55:23.180Z,35
2016-06-12T12:56:23.198Z,35
2016-06-12T12:57:23.701Z,35
2016-06-12T12:58:23.204Z,35
2016-06-12T12:59:23.880Z,35
2016-06-12T13:00:23.054Z,35
2016-06-12T13:01:23.574Z,40
2016-06-12T13:02:23.233Z,40
2016-06-12T13:03:23.219Z,40
2016-06-12T13:04:23.254Z,45
2016-06-12T13:05:23.258Z,45
2016-06-12T13:06:23.260Z,45
2016-06-12T13:07:23.248Z,45
2016-06-12T13:08:24.907Z,40
2016-06-12T13:09:23.254Z,40
2016-06-12T13:10:24.757Z,40
2016-06-12T13:11:23.277Z,35
2016-06-12T13:12:23.544Z,35
2016-06-12T13:13:23.282Z,30
2016-06-12T13:14:23.300Z,30
2016-06-12T13:15:23.288Z,30
2016-06-12T13:16:23.291Z,30
2016-06-12T13:17:23.310Z,30
2016-06-12T13:18:23.173Z,30
2016-06-12T13:19:23.754Z,30
2016-06-12T13:20:23.319Z,30
2016-06-12T13:21:23.869Z,35
2016-06-12T13:22:23.325Z,35
2016-06-12T13:23:24.188Z,40
2016-06-12T13:24:23.332Z,40
2016-06-12T13:25:23.350Z,45
2016-06-12T13:26:23.181Z,45
2016-06-12T13:27:23.185Z,45
2016-06-12T13:28:23.343Z,50
2016-06-12T13:29:23.206Z,50
2016-06-12T13:30:24.006Z,55
2016-06-12T13:31:23.399Z,55
2016-06-12T13:32:24.168Z,60
2016-06-12T13:33:23.375Z,60
2016-06-12T13:34:23.972Z,60
2016-06-12T13:35:23.099Z,65
2016-06-12T13:36:23.399Z,65
2016-06-12T13:37:23.418Z,65
2016-06-12T13:38:23.110Z,65
2016-06-12T13:39:23.409Z,65
2016-06-12T13:40:23.411Z,65
2016-06-12T13:41:24.430Z,65
2016-06-12T13:42:23.277Z,65
2016-06-12T13:43:24.514Z,65
2016-06-12T13:44:23.487Z,70
2016-06-12T13:45:24.287Z,65
2016-06-12T13:46:23.602Z,65
2016-06-12T13:47:23.449Z,60
2016-06-12T13:48:23.451Z,55
2016-06-12T13:49:23.455Z,55
2016-06-12T13:50:23.458Z,50
2016-06-12T13:51:23.478Z,50
2016-06-12T13:52:24.089Z,50
2016-06-12T13:53:23.858Z,45
2016-06-12T13:54:25.080Z,45
2016-06-12T13:55:23.490Z,45
2016-06-12T13:56:23.507Z,45
2016-06-12T13:57:23.511Z,45
2016-06-12T13:58:23.514Z,50
2016-06-12T13:59:23.517Z,50
2016-06-12T14:00:23.536Z,50
2016-06-12T14:01:23.523Z,55
2016-06-12T14:02:23.526Z,55
2016-06-12T14:03:24.498Z,60
2016-06-12T14:04:23.548Z,60
2016-06-12T14:05:24.160Z,60
2016-06-12T14:06:23.554Z,60
2016-06-12T14:07:23.557Z,60
2016-06-12T14:08:23.607Z,60
2016-06-12T14:09:23.705Z,65
2016-06-12T14:10:23.425Z,65
2016-06-12T14:11:23.413Z,65
2016-06-12T14:12:23.588Z,65
2016-06-12T14:13:23.592Z,65
2016-06-12T14:14:24.641Z,65
2016-06-12T14:15:23.457Z,65
2016-06-12T14:16:24.288Z,65
2016-06-12T14:17:23.619Z,65
2016-06-12T14:18:23.622Z,65
2016-06-12T14:19:23.625Z,65
2016-06-12T14:20:23.628Z,65
2016-06-12T14:21:23.631Z,65
2016-06-12T14:22:23.634Z,65
2016-06-12T14:23:24.091Z,65
2016-06-12T14:24:23.500Z,65
2016-06-12T14:25:24.924Z,65